sensor_id;sensor_type;location;lat;lon;timestamp;pressure;altitude;pressure_sealevel;temperature;humidity
64521;BME280;50896;46.714;17.322;2023-02-16T00:01:52;101855.16;;;-0.63;100.00
64521;BME280;50896;46.714;17.322;2023-02-16T00:04:22;101856.63;;;-0.56;100.00
64521;BME280;50896;46.714;17.322;2023-02-16T00:06:51;101859.13;;;-0.53;100.00
64521;BME280;50896;46.714;17.322;2023-02-16T00:09:19;101841.19;;;-0.62;100.00
64521;BME280;50896;46.714;17.322;2023-02-16T00:11:46;101863.44;;;-0.52;100.00
64521;BME280;50896;46.714;17.322;2023-02-16T00:14:33;101858.16;;;-0.50;100.00
64521;BME280;50896;46.714;17.322;2023-02-16T00:17:01;101850.63;;;-0.58;100.00
64521;BME280;50896;46.714;17.322;2023-02-16T00:21:57;101848.31;;;-0.67;100.00
64521;BME280;50896;46.714;17.322;2023-02-16T00:24:26;101844.16;;;-0.73;100.00
64521;BME280;50896;46.714;17.322;2023-02-16T00:26:54;101832.41;;;-0.85;100.00
64521;BME280;50896;46.714;17.322;2023-02-16T00:29:30;101842.63;;;-0.79;100.00
64521;BME280;50896;46.714;17.322;2023-02-16T00:31:59;101848.03;;;-0.83;100.00
64521;BME280;50896;46.714;17.322;2023-02-16T00:34:35;101842.88;;;-0.87;100.00
64521;BME280;50896;46.714;17.322;2023-02-16T00:37:08;101803.78;;;-1.13;100.00
64521;BME280;50896;46.714;17.322;2023-02-16T00:39:36;101842.22;;;-0.92;100.00
64521;BME280;50896;46.714;17.322;2023-02-16T00:42:06;101840.78;;;-1.00;100.00
64521;BME280;50896;46.714;17.322;2023-02-16T00:44:40;101837.28;;;-1.01;100.00
64521;BME280;50896;46.714;17.322;2023-02-16T00:49:51;101833.97;;;-1.06;100.00
64521;BME280;50896;46.714;17.322;2023-02-16T00:54:56;101820.31;;;-1.13;100.00
64521;BME280;50896;46.714;17.322;2023-02-16T00:57:23;101840.81;;;-1.02;100.00
64521;BME280;50896;46.714;17.322;2023-02-16T00:59:58;101841.69;;;-1.01;100.00
64521;BME280;50896;46.714;17.322;2023-02-16T01:02:26;101832.41;;;-1.10;100.00
64521;BME280;50896;46.714;17.322;2023-02-16T01:04:54;101826.88;;;-1.28;100.00
64521;BME280;50896;46.714;17.322;2023-02-16T01:07:22;101824.16;;;-1.25;100.00
64521;BME280;50896;46.714;17.322;2023-02-16T01:10:09;101830.22;;;-1.23;100.00
64521;BME280;50896;46.714;17.322;2023-02-16T01:12:54;101803.69;;;-1.37;100.00
64521;BME280;50896;46.714;17.322;2023-02-16T01:15:23;101815.50;;;-1.25;100.00
64521;BME280;50896;46.714;17.322;2023-02-16T01:17:51;101797.81;;;-1.42;100.00
64521;BME280;50896;46.714;17.322;2023-02-16T01:20:23;101819.13;;;-1.29;100.00
64521;BME280;50896;46.714;17.322;2023-02-16T01:22:51;101813.41;;;-1.41;100.00
64521;BME280;50896;46.714;17.322;2023-02-16T01:25:18;101814.41;;;-1.45;100.00
64521;BME280;50896;46.714;17.322;2023-02-16T01:27:46;101811.91;;;-1.48;100.00
64521;BME280;50896;46.714;17.322;2023-02-16T01:30:21;101796.28;;;-1.49;100.00
64521;BME280;50896;46.714;17.322;2023-02-16T01:32:48;101792.63;;;-1.44;100.00
64521;BME280;50896;46.714;17.322;2023-02-16T01:35:23;101797.63;;;-1.38;100.00
64521;BME280;50896;46.714;17.322;2023-02-16T01:37:52;101801.00;;;-1.34;100.00
64521;BME280;50896;46.714;17.322;2023-02-16T01:40:35;101790.72;;;-1.39;100.00
64521;BME280;50896;46.714;17.322;2023-02-16T01:45:50;101795.63;;;-1.29;100.00
64521;BME280;50896;46.714;17.322;2023-02-16T01:48:24;101789.34;;;-1.24;100.00
64521;BME280;50896;46.714;17.322;2023-02-16T01:51:03;101794.41;;;-1.19;100.00
64521;BME280;50896;46.714;17.322;2023-02-16T01:53:44;101791.00;;;-1.21;100.00
64521;BME280;50896;46.714;17.322;2023-02-16T01:59:03;101751.38;;;-1.32;100.00
64521;BME280;50896;46.714;17.322;2023-02-16T02:01:43;101781.25;;;-1.16;100.00
64521;BME280;50896;46.714;17.322;2023-02-16T02:04:25;101776.25;;;-1.22;100.00
64521;BME280;50896;46.714;17.322;2023-02-16T02:07:25;101779.06;;;-1.28;100.00
64521;BME280;50896;46.714;17.322;2023-02-16T02:10:02;101770.72;;;-1.38;100.00
64521;BME280;50896;46.714;17.322;2023-02-16T02:12:38;101776.00;;;-1.41;100.00
64521;BME280;50896;46.714;17.322;2023-02-16T02:15:10;101781.28;;;-1.43;100.00
64521;BME280;50896;46.714;17.322;2023-02-16T02:17:37;101774.44;;;-1.47;100.00
64521;BME280;50896;46.714;17.322;2023-02-16T02:20:18;101760.03;;;-1.57;100.00
64521;BME280;50896;46.714;17.322;2023-02-16T02:35:16;101766.34;;;-1.64;100.00
64521;BME280;50896;46.714;17.322;2023-02-16T02:41:40;101763.94;;;-1.70;100.00
64521;BME280;50896;46.714;17.322;2023-02-16T02:44:05;101759.78;;;-1.76;100.00
64521;BME280;50896;46.714;17.322;2023-02-16T02:46:34;101756.50;;;-1.83;100.00
64521;BME280;50896;46.714;17.322;2023-02-16T02:49:03;101758.31;;;-1.85;100.00
64521;BME280;50896;46.714;17.322;2023-02-16T02:51:29;101747.53;;;-2.01;100.00
64521;BME280;50896;46.714;17.322;2023-02-16T02:54:12;101750.84;;;-1.96;100.00
64521;BME280;50896;46.714;17.322;2023-02-16T02:57:25;101745.66;;;-1.97;100.00
64521;BME280;50896;46.714;17.322;2023-02-16T03:00:45;101751.00;;;-2.00;100.00
64521;BME280;50896;46.714;17.322;2023-02-16T03:05:45;101732.41;;;-2.18;100.00
64521;BME280;50896;46.714;17.322;2023-02-16T03:08:17;101732.91;;;-2.07;100.00
64521;BME280;50896;46.714;17.322;2023-02-16T03:14:05;101734.03;;;-2.14;100.00
64521;BME280;50896;46.714;17.322;2023-02-16T03:16:40;101684.53;;;-2.42;100.00
64521;BME280;50896;46.714;17.322;2023-02-16T03:19:10;101718.03;;;-2.30;100.00
64521;BME280;50896;46.714;17.322;2023-02-16T03:21:58;101724.06;;;-2.29;100.00
64521;BME280;50896;46.714;17.322;2023-02-16T03:24:45;101737.56;;;-2.15;100.00
64521;BME280;50896;46.714;17.322;2023-02-16T03:27:37;101743.75;;;-2.19;100.00
64521;BME280;50896;46.714;17.322;2023-02-16T03:30:25;101748.19;;;-2.22;100.00
64521;BME280;50896;46.714;17.322;2023-02-16T03:32:53;101732.63;;;-2.24;100.00
64521;BME280;50896;46.714;17.322;2023-02-16T03:35:20;101735.13;;;-2.21;100.00
64521;BME280;50896;46.714;17.322;2023-02-16T03:37:48;101732.50;;;-2.21;100.00
64521;BME280;50896;46.714;17.322;2023-02-16T03:40:15;101732.56;;;-2.22;100.00
64521;BME280;50896;46.714;17.322;2023-02-16T03:42:58;101739.81;;;-2.32;100.00
64521;BME280;50896;46.714;17.322;2023-02-16T03:45:26;101745.84;;;-2.32;100.00
64521;BME280;50896;46.714;17.322;2023-02-16T03:47:53;101722.88;;;-2.47;100.00
64521;BME280;50896;46.714;17.322;2023-02-16T03:50:21;101740.94;;;-2.41;100.00
64521;BME280;50896;46.714;17.322;2023-02-16T03:52:48;101720.63;;;-2.58;100.00
64521;BME280;50896;46.714;17.322;2023-02-16T03:55:15;101744.66;;;-2.50;100.00
64521;BME280;50896;46.714;17.322;2023-02-16T03:57:41;101714.69;;;-2.63;100.00
64521;BME280;50896;46.714;17.322;2023-02-16T04:00:09;101737.88;;;-2.55;100.00
64521;BME280;50896;46.714;17.322;2023-02-16T04:02:39;101737.13;;;-2.59;100.00
64521;BME280;50896;46.714;17.322;2023-02-16T04:05:06;101740.59;;;-2.59;100.00
64521;BME280;50896;46.714;17.322;2023-02-16T04:07:32;101745.03;;;-2.62;100.00
64521;BME280;50896;46.714;17.322;2023-02-16T04:09:59;101745.09;;;-2.64;100.00
64521;BME280;50896;46.714;17.322;2023-02-16T04:12:26;101733.91;;;-2.67;100.00
64521;BME280;50896;46.714;17.322;2023-02-16T04:15:08;101744.13;;;-2.61;100.00
64521;BME280;50896;46.714;17.322;2023-02-16T04:17:35;101746.72;;;-2.61;100.00
64521;BME280;50896;46.714;17.322;2023-02-16T04:20:03;101742.50;;;-2.65;100.00
64521;BME280;50896;46.714;17.322;2023-02-16T04:22:30;101737.69;;;-2.79;100.00
64521;BME280;50896;46.714;17.322;2023-02-16T04:24:57;101731.69;;;-2.81;100.00
64521;BME280;50896;46.714;17.322;2023-02-16T04:27:24;101733.44;;;-2.82;100.00
64521;BME280;50896;46.714;17.322;2023-02-16T04:29:51;101737.69;;;-2.78;100.00
64521;BME280;50896;46.714;17.322;2023-02-16T04:32:17;101735.13;;;-2.81;100.00
64521;BME280;50896;46.714;17.322;2023-02-16T04:34:44;101732.63;;;-2.84;100.00
64521;BME280;50896;46.714;17.322;2023-02-16T04:37:11;101691.63;;;-3.05;100.00
64521;BME280;50896;46.714;17.322;2023-02-16T04:39:38;101714.75;;;-2.96;100.00
64521;BME280;50896;46.714;17.322;2023-02-16T04:42:05;101731.75;;;-2.83;100.00
64521;BME280;50896;46.714;17.322;2023-02-16T04:44:32;101721.31;;;-2.83;100.00
64521;BME280;50896;46.714;17.322;2023-02-16T04:46:58;101734.16;;;-2.77;100.00
64521;BME280;50896;46.714;17.322;2023-02-16T04:49:25;101731.44;;;-2.72;100.00
64521;BME280;50896;46.714;17.322;2023-02-16T04:51:52;101735.03;;;-2.76;100.00
64521;BME280;50896;46.714;17.322;2023-02-16T04:54:19;101735.03;;;-2.76;100.00
64521;BME280;50896;46.714;17.322;2023-02-16T04:56:46;101737.75;;;-2.81;100.00
64521;BME280;50896;46.714;17.322;2023-02-16T04:59:14;101731.09;;;-2.91;100.00
64521;BME280;50896;46.714;17.322;2023-02-16T05:01:41;101734.34;;;-2.83;100.00
64521;BME280;50896;46.714;17.322;2023-02-16T05:04:09;101743.00;;;-2.82;100.00
64521;BME280;50896;46.714;17.322;2023-02-16T05:06:37;101725.25;;;-2.99;100.00
64521;BME280;50896;46.714;17.322;2023-02-16T05:09:05;101721.06;;;-3.05;100.00
64521;BME280;50896;46.714;17.322;2023-02-16T05:11:32;101733.91;;;-2.99;100.00
64521;BME280;50896;46.714;17.322;2023-02-16T05:14:26;101724.78;;;-3.14;100.00
64521;BME280;50896;46.714;17.322;2023-02-16T05:19:39;101741.06;;;-3.05;100.00
64521;BME280;50896;46.714;17.322;2023-02-16T05:22:07;101741.09;;;-3.09;100.00
64521;BME280;50896;46.714;17.322;2023-02-16T05:24:34;101730.69;;;-3.09;100.00
64521;BME280;50896;46.714;17.322;2023-02-16T05:27:02;101735.06;;;-3.09;100.00
64521;BME280;50896;46.714;17.322;2023-02-16T05:29:30;101736.13;;;-3.16;100.00
64521;BME280;50896;46.714;17.322;2023-02-16T05:31:57;101737.06;;;-3.19;100.00
64521;BME280;50896;46.714;17.322;2023-02-16T05:34:24;101730.41;;;-3.29;100.00
64521;BME280;50896;46.714;17.322;2023-02-16T05:36:51;101726.06;;;-3.29;100.00
64521;BME280;50896;46.714;17.322;2023-02-16T05:39:18;101724.09;;;-3.20;100.00
64521;BME280;50896;46.714;17.322;2023-02-16T05:41:45;101731.13;;;-3.24;100.00
64521;BME280;50896;46.714;17.322;2023-02-16T05:44:12;101732.75;;;-3.20;100.00
64521;BME280;50896;46.714;17.322;2023-02-16T05:46:39;101708.72;;;-3.30;100.00
64521;BME280;50896;46.714;17.322;2023-02-16T05:49:07;101725.22;;;-3.29;100.00
64521;BME280;50896;46.714;17.322;2023-02-16T05:51:34;101724.34;;;-3.30;100.00
64521;BME280;50896;46.714;17.322;2023-02-16T05:54:02;101725.91;;;-3.24;100.00
64521;BME280;50896;46.714;17.322;2023-02-16T05:56:29;101731.13;;;-3.24;100.00
64521;BME280;50896;46.714;17.322;2023-02-16T05:58:57;101737.06;;;-3.19;100.00
64521;BME280;50896;46.714;17.322;2023-02-16T06:01:26;101720.75;;;-3.26;100.00
64521;BME280;50896;46.714;17.322;2023-02-16T06:03:53;101748.22;;;-3.14;100.00
64521;BME280;50896;46.714;17.322;2023-02-16T06:06:20;101754.00;;;-3.04;100.00
64521;BME280;50896;46.714;17.322;2023-02-16T06:08:46;101750.28;;;-2.95;100.00
64521;BME280;50896;46.714;17.322;2023-02-16T06:11:13;101722.78;;;-3.04;100.00
64521;BME280;50896;46.714;17.322;2023-02-16T06:13:59;101748.88;;;-2.76;100.00
64521;BME280;50896;46.714;17.322;2023-02-16T06:16:31;101730.75;;;-2.79;100.00
64521;BME280;50896;46.714;17.322;2023-02-16T06:18:59;101756.31;;;-2.62;100.00
64521;BME280;50896;46.714;17.322;2023-02-16T06:21:27;101763.13;;;-2.58;100.00
64521;BME280;50896;46.714;17.322;2023-02-16T06:23:54;101765.50;;;-2.50;100.00
64521;BME280;50896;46.714;17.322;2023-02-16T06:26:21;101753.28;;;-2.48;100.00
64521;BME280;50896;46.714;17.322;2023-02-16T06:28:48;101760.22;;;-2.47;100.00
64521;BME280;50896;46.714;17.322;2023-02-16T06:31:15;101743.19;;;-2.59;100.00
64521;BME280;50896;46.714;17.322;2023-02-16T06:33:42;101755.66;;;-2.40;100.00
64521;BME280;50896;46.714;17.322;2023-02-16T06:36:10;101761.31;;;-2.26;100.00
64521;BME280;50896;46.714;17.322;2023-02-16T06:38:37;101752.09;;;-2.37;100.00
64521;BME280;50896;46.714;17.322;2023-02-16T06:41:04;101773.47;;;-2.26;100.00
64521;BME280;50896;46.714;17.322;2023-02-16T06:43:31;101755.38;;;-2.31;100.00
64521;BME280;50896;46.714;17.322;2023-02-16T06:45:58;101764.66;;;-2.22;100.00
64521;BME280;50896;46.714;17.322;2023-02-16T06:48:25;101760.44;;;-2.25;100.00
64521;BME280;50896;46.714;17.322;2023-02-16T06:50:52;101758.66;;;-2.24;100.00
64521;BME280;50896;46.714;17.322;2023-02-16T06:53:19;101760.03;;;-2.12;100.00
64521;BME280;50896;46.714;17.322;2023-02-16T06:55:49;101770.44;;;-2.11;100.00
64521;BME280;50896;46.714;17.322;2023-02-16T06:58:16;101765.97;;;-2.07;100.00
64521;BME280;50896;46.714;17.322;2023-02-16T07:00:43;101759.81;;;-2.04;100.00
64521;BME280;50896;46.714;17.322;2023-02-16T07:03:10;101756.31;;;-2.03;100.00
64521;BME280;50896;46.714;17.322;2023-02-16T07:05:36;101759.66;;;-2.00;100.00
64521;BME280;50896;46.714;17.322;2023-02-16T07:08:03;101752.69;;;-1.99;100.00
64521;BME280;50896;46.714;17.322;2023-02-16T07:10:30;101753.44;;;-1.96;100.00
64521;BME280;50896;46.714;17.322;2023-02-16T07:13:14;101729.28;;;-2.01;100.00
64521;BME280;50896;46.714;17.322;2023-02-16T07:15:41;101720.44;;;-1.97;100.00
64521;BME280;50896;46.714;17.322;2023-02-16T07:18:08;101727.94;;;-1.86;100.00
64521;BME280;50896;46.714;17.322;2023-02-16T07:20:35;101745.53;;;-1.66;100.00
64521;BME280;50896;46.714;17.322;2023-02-16T07:23:02;101748.69;;;-1.56;100.00
64521;BME280;50896;46.714;17.322;2023-02-16T07:25:29;101752.81;;;-1.49;100.00
64521;BME280;50896;46.714;17.322;2023-02-16T07:27:56;101720.72;;;-1.52;100.00
64521;BME280;50896;46.714;17.322;2023-02-16T07:30:23;101749.44;;;-1.27;100.00
64521;BME280;50896;46.714;17.322;2023-02-16T07:32:49;101746.28;;;-1.10;100.00
64521;BME280;50896;46.714;17.322;2023-02-16T07:35:16;101754.72;;;-1.04;100.00
64521;BME280;50896;46.714;17.322;2023-02-16T07:37:43;101741.50;;;-0.99;100.00
64521;BME280;50896;46.714;17.322;2023-02-16T07:40:10;101756.44;;;-0.79;100.00
64521;BME280;50896;46.714;17.322;2023-02-16T07:42:37;101736.44;;;-0.80;100.00
64521;BME280;50896;46.714;17.322;2023-02-16T07:45:04;101765.06;;;-0.77;100.00
64521;BME280;50896;46.714;17.322;2023-02-16T07:47:31;101762.81;;;-0.86;100.00
64521;BME280;50896;46.714;17.322;2023-02-16T07:49:58;101770.53;;;-0.83;100.00
64521;BME280;50896;46.714;17.322;2023-02-16T07:52:25;101764.28;;;-0.79;100.00
64521;BME280;50896;46.714;17.322;2023-02-16T07:54:57;101749.13;;;-0.93;100.00
64521;BME280;50896;46.714;17.322;2023-02-16T07:57:25;101766.78;;;-0.76;100.00
64521;BME280;50896;46.714;17.322;2023-02-16T07:59:53;101759.75;;;-0.74;100.00
64521;BME280;50896;46.714;17.322;2023-02-16T08:02:21;101763.38;;;-0.78;100.00
64521;BME280;50896;46.714;17.322;2023-02-16T08:04:49;101759.56;;;-0.69;100.00
64521;BME280;50896;46.714;17.322;2023-02-16T08:07:19;101751.47;;;-0.61;100.00
64521;BME280;50896;46.714;17.322;2023-02-16T08:09:46;101767.41;;;-0.45;100.00
64521;BME280;50896;46.714;17.322;2023-02-16T08:12:14;101754.41;;;-0.47;100.00
64521;BME280;50896;46.714;17.322;2023-02-16T08:14:41;101770.28;;;-0.29;100.00
64521;BME280;50896;46.714;17.322;2023-02-16T08:17:08;101777.66;;;-0.17;100.00
64521;BME280;50896;46.714;17.322;2023-02-16T08:19:35;101743.56;;;-0.14;100.00
64521;BME280;50896;46.714;17.322;2023-02-16T08:22:07;101751.84;;;-0.03;100.00
64521;BME280;50896;46.714;17.322;2023-02-16T08:24:34;101757.16;;;-0.06;100.00
64521;BME280;50896;46.714;17.322;2023-02-16T08:27:02;101779.97;;;0.13;100.00
64521;BME280;50896;46.714;17.322;2023-02-16T08:29:31;101773.94;;;0.11;100.00
64521;BME280;50896;46.714;17.322;2023-02-16T08:31:58;101773.25;;;0.28;100.00
64521;BME280;50896;46.714;17.322;2023-02-16T08:34:26;101776.50;;;0.34;100.00
64521;BME280;50896;46.714;17.322;2023-02-16T08:36:54;101780.63;;;0.40;100.00
64521;BME280;50896;46.714;17.322;2023-02-16T08:39:25;101787.50;;;0.43;100.00
64521;BME280;50896;46.714;17.322;2023-02-16T08:41:53;101774.47;;;0.41;100.00
64521;BME280;50896;46.714;17.322;2023-02-16T08:44:22;101782.13;;;0.46;100.00
64521;BME280;50896;46.714;17.322;2023-02-16T08:46:51;101768.50;;;0.38;100.00
64521;BME280;50896;46.714;17.322;2023-02-16T08:49:20;101781.41;;;0.42;100.00
64521;BME280;50896;46.714;17.322;2023-02-16T08:51:50;101784.81;;;0.44;100.00
64521;BME280;50896;46.714;17.322;2023-02-16T08:54:20;101780.53;;;0.42;100.00
64521;BME280;50896;46.714;17.322;2023-02-16T08:56:47;101787.97;;;0.53;100.00
64521;BME280;50896;46.714;17.322;2023-02-16T08:59:17;101787.19;;;0.50;100.00
64521;BME280;50896;46.714;17.322;2023-02-16T09:01:44;101781.69;;;0.57;100.00
64521;BME280;50896;46.714;17.322;2023-02-16T09:04:12;101770.97;;;0.63;100.00
64521;BME280;50896;46.714;17.322;2023-02-16T09:06:41;101762.91;;;0.67;100.00
64521;BME280;50896;46.714;17.322;2023-02-16T09:09:08;101757.63;;;0.69;100.00
64521;BME280;50896;46.714;17.322;2023-02-16T09:11:36;101763.69;;;0.90;100.00
64521;BME280;50896;46.714;17.322;2023-02-16T09:14:03;101775.97;;;1.09;100.00
64521;BME280;50896;46.714;17.322;2023-02-16T09:16:31;101771.13;;;1.20;100.00
64521;BME280;50896;46.714;17.322;2023-02-16T09:19:01;101768.88;;;1.31;100.00
64521;BME280;50896;46.714;17.322;2023-02-16T09:21:29;101747.91;;;1.31;100.00
64521;BME280;50896;46.714;17.322;2023-02-16T09:24:01;101761.75;;;1.54;100.00
64521;BME280;50896;46.714;17.322;2023-02-16T09:26:35;101764.13;;;1.78;100.00
64521;BME280;50896;46.714;17.322;2023-02-16T09:29:09;101766.34;;;1.68;100.00
64521;BME280;50896;46.714;17.322;2023-02-16T09:31:38;101738.19;;;1.71;100.00
64521;BME280;50896;46.714;17.322;2023-02-16T09:34:17;101749.97;;;1.82;100.00
64521;BME280;50896;46.714;17.322;2023-02-16T09:36:45;101765.78;;;1.80;100.00
64521;BME280;50896;46.714;17.322;2023-02-16T09:39:13;101761.59;;;1.76;100.00
64521;BME280;50896;46.714;17.322;2023-02-16T09:46:59;101761.66;;;1.75;100.00
64521;BME280;50896;46.714;17.322;2023-02-16T09:49:35;101768.59;;;1.76;100.00
64521;BME280;50896;46.714;17.322;2023-02-16T09:52:16;101753.88;;;1.73;100.00
64521;BME280;50896;46.714;17.322;2023-02-16T09:54:49;101753.66;;;1.78;100.00
64521;BME280;50896;46.714;17.322;2023-02-16T10:05:54;101750.16;;;1.96;100.00
64521;BME280;50896;46.714;17.322;2023-02-16T10:08:24;101754.50;;;2.15;100.00
64521;BME280;50896;46.714;17.322;2023-02-16T10:13:42;101731.28;;;2.25;100.00
64521;BME280;50896;46.714;17.322;2023-02-16T10:16:21;101741.16;;;2.37;100.00
64521;BME280;50896;46.714;17.322;2023-02-16T10:18:50;101748.19;;;2.54;100.00
64521;BME280;50896;46.714;17.322;2023-02-16T10:21:24;101750.81;;;2.54;100.00
64521;BME280;50896;46.714;17.322;2023-02-16T10:24:02;101754.00;;;2.61;100.00
64521;BME280;50896;46.714;17.322;2023-02-16T10:29:16;101730.72;;;2.70;100.00
64521;BME280;50896;46.714;17.322;2023-02-16T10:40:14;101731.84;;;3.00;100.00
64521;BME280;50896;46.714;17.322;2023-02-16T10:45:50;101735.19;;;3.19;100.00
64521;BME280;50896;46.714;17.322;2023-02-16T10:48:20;101723.84;;;3.19;100.00
64521;BME280;50896;46.714;17.322;2023-02-16T10:51:23;101738.13;;;3.47;100.00
64521;BME280;50896;46.714;17.322;2023-02-16T10:56:48;101734.81;;;3.75;100.00
64521;BME280;50896;46.714;17.322;2023-02-16T10:59:23;101722.00;;;3.69;100.00
64521;BME280;50896;46.714;17.322;2023-02-16T11:01:53;101729.97;;;3.99;100.00
64521;BME280;50896;46.714;17.322;2023-02-16T11:04:42;101722.47;;;4.07;100.00
64521;BME280;50896;46.714;17.322;2023-02-16T11:07:17;101714.25;;;4.28;100.00
64521;BME280;50896;46.714;17.322;2023-02-16T11:09:47;101722.13;;;4.14;100.00
64521;BME280;50896;46.714;17.322;2023-02-16T11:12:37;101695.41;;;4.36;100.00
64521;BME280;50896;46.714;17.322;2023-02-16T11:15:21;101711.22;;;4.65;100.00
64521;BME280;50896;46.714;17.322;2023-02-16T11:20:31;101706.56;;;5.13;100.00
64521;BME280;50896;46.714;17.322;2023-02-16T11:23:56;101712.97;;;5.65;100.00
64521;BME280;50896;46.714;17.322;2023-02-16T11:26:25;101689.63;;;7.29;100.00
64521;BME280;50896;46.714;17.322;2023-02-16T11:28:52;101693.41;;;9.04;100.00
64521;BME280;50896;46.714;17.322;2023-02-16T11:31:35;101690.56;;;10.80;100.00
64521;BME280;50896;46.714;17.322;2023-02-16T11:36:41;101682.56;;;14.06;63.52
64521;BME280;50896;46.714;17.322;2023-02-16T11:39:21;101666.22;;;16.23;44.92
64521;BME280;50896;46.714;17.322;2023-02-16T11:41:55;101654.88;;;17.48;40.83
64521;BME280;50896;46.714;17.322;2023-02-16T11:44:30;101652.06;;;17.96;38.44
64521;BME280;50896;46.714;17.322;2023-02-16T11:47:06;101656.78;;;18.62;37.84
64521;BME280;50896;46.714;17.322;2023-02-16T11:49:39;101648.16;;;18.37;37.29
64521;BME280;50896;46.714;17.322;2023-02-16T11:54:53;101627.75;;;16.55;40.92
64521;BME280;50896;46.714;17.322;2023-02-16T11:57:32;101642.56;;;16.10;41.73
64521;BME280;50896;46.714;17.322;2023-02-16T12:00:13;101639.00;;;15.44;43.03
64521;BME280;50896;46.714;17.322;2023-02-16T12:05:50;101640.13;;;13.49;47.65
64521;BME280;50896;46.714;17.322;2023-02-16T12:09:06;101627.59;;;13.04;49.17
64521;BME280;50896;46.714;17.322;2023-02-16T12:11:49;101618.75;;;11.69;53.28
64521;BME280;50896;46.714;17.322;2023-02-16T12:16:59;101625.69;;;11.02;55.39
64521;BME280;50896;46.714;17.322;2023-02-16T12:19:40;101615.25;;;11.49;54.03
64521;BME280;50896;46.714;17.322;2023-02-16T12:24:52;101576.78;;;12.95;49.61
64521;BME280;50896;46.714;17.322;2023-02-16T12:27:30;101586.44;;;13.24;48.64
64521;BME280;50896;46.714;17.322;2023-02-16T12:30:05;101601.66;;;11.52;53.89
64521;BME280;50896;46.714;17.322;2023-02-16T12:32:43;101605.50;;;10.58;56.08
64521;BME280;50896;46.714;17.322;2023-02-16T12:35:24;101596.72;;;9.41;61.39
64521;BME280;50896;46.714;17.322;2023-02-16T12:38:10;101596.53;;;8.31;69.10
64521;BME280;50896;46.714;17.322;2023-02-16T12:41:13;101599.88;;;8.21;69.73
64521;BME280;50896;46.714;17.322;2023-02-16T12:43:52;101604.44;;;7.73;73.46
64521;BME280;50896;46.714;17.322;2023-02-16T12:46:38;101599.03;;;7.39;75.99
64521;BME280;50896;46.714;17.322;2023-02-16T12:49:12;101589.28;;;7.15;79.42
64521;BME280;50896;46.714;17.322;2023-02-16T12:52:11;101591.88;;;6.91;83.61
64521;BME280;50896;46.714;17.322;2023-02-16T12:54:41;101581.72;;;6.84;83.84
64521;BME280;50896;46.714;17.322;2023-02-16T12:57:15;101587.66;;;6.75;82.99
64521;BME280;50896;46.714;17.322;2023-02-16T12:59:50;101589.50;;;6.62;85.34
64521;BME280;50896;46.714;17.322;2023-02-16T13:02:43;101559.59;;;6.36;88.02
64521;BME280;50896;46.714;17.322;2023-02-16T13:05:28;101567.53;;;6.48;85.89
64521;BME280;50896;46.714;17.322;2023-02-16T13:08:04;101570.03;;;6.50;87.58
64521;BME280;50896;46.714;17.322;2023-02-16T13:10:36;101568.19;;;6.39;90.39
64521;BME280;50896;46.714;17.322;2023-02-16T13:13:14;101575.25;;;6.26;90.41
64521;BME280;50896;46.714;17.322;2023-02-16T13:18:35;101557.28;;;6.05;97.44
64521;BME280;50896;46.714;17.322;2023-02-16T13:29:02;101543.56;;;6.13;97.22
64521;BME280;50896;46.714;17.322;2023-02-16T13:31:48;101536.59;;;5.99;100.00
64521;BME280;50896;46.714;17.322;2023-02-16T13:45:27;101525.47;;;5.94;100.00
64521;BME280;50896;46.714;17.322;2023-02-16T13:47:55;101515.84;;;5.93;99.87
64521;BME280;50896;46.714;17.322;2023-02-16T13:50:28;101532.00;;;5.88;100.00
64521;BME280;50896;46.714;17.322;2023-02-16T13:53:09;101520.78;;;5.85;100.00
64521;BME280;50896;46.714;17.322;2023-02-16T13:55:38;101525.78;;;5.89;99.89
64521;BME280;50896;46.714;17.322;2023-02-16T13:58:26;101517.44;;;5.82;100.00
64521;BME280;50896;46.714;17.322;2023-02-16T14:00:53;101499.91;;;5.69;100.00
64521;BME280;50896;46.714;17.322;2023-02-16T14:05:52;101506.88;;;5.70;100.00
64521;BME280;50896;46.714;17.322;2023-02-16T14:08:23;101495.66;;;5.66;100.00
64521;BME280;50896;46.714;17.322;2023-02-16T14:16:08;101499.78;;;5.83;100.00
64521;BME280;50896;46.714;17.322;2023-02-16T14:18:57;101502.38;;;5.97;100.00
64521;BME280;50896;46.714;17.322;2023-02-16T14:21:37;101511.00;;;6.12;99.97
64521;BME280;50896;46.714;17.322;2023-02-16T14:24:51;101489.06;;;5.99;99.43
64521;BME280;50896;46.714;17.322;2023-02-16T14:32:26;101508.50;;;5.98;100.00
64521;BME280;50896;46.714;17.322;2023-02-16T14:35:06;101511.03;;;5.99;100.00
64521;BME280;50896;46.714;17.322;2023-02-16T14:37:38;101501.44;;;6.11;100.00
64521;BME280;50896;46.714;17.322;2023-02-16T14:40:12;101500.34;;;6.27;98.67
64521;BME280;50896;46.714;17.322;2023-02-16T14:42:51;101497.81;;;6.12;99.94
64521;BME280;50896;46.714;17.322;2023-02-16T14:45:29;101496.78;;;6.02;100.00
64521;BME280;50896;46.714;17.322;2023-02-16T14:56:53;101501.34;;;5.47;100.00
64521;BME280;50896;46.714;17.322;2023-02-16T15:02:33;101508.78;;;5.27;100.00
64521;BME280;50896;46.714;17.322;2023-02-16T15:05:25;101506.75;;;5.18;100.00
64521;BME280;50896;46.714;17.322;2023-02-16T15:08:04;101500.09;;;5.12;100.00
64521;BME280;50896;46.714;17.322;2023-02-16T15:10:35;101515.59;;;5.17;100.00
64521;BME280;50896;46.714;17.322;2023-02-16T15:13:03;101510.63;;;5.12;100.00
64521;BME280;50896;46.714;17.322;2023-02-16T15:15:46;101510.09;;;5.07;100.00
64521;BME280;50896;46.714;17.322;2023-02-16T15:18:17;101502.97;;;4.95;100.00